createdAt,value
2023-04-06T00:02:19.560Z,28.30
2023-04-06T00:04:46.407Z,28.87
2023-04-06T00:07:13.885Z,29.53
2023-04-06T00:09:40.771Z,28.17
2023-04-06T00:12:07.678Z,27.57
2023-04-06T00:14:34.547Z,27.53
2023-04-06T00:17:01.482Z,28.60
2023-04-06T00:19:28.511Z,27.17
2023-04-06T00:21:55.400Z,28.03
2023-04-06T00:24:22.431Z,27.60
2023-04-06T00:26:49.298Z,26.43
2023-04-06T00:29:16.581Z,25.57
2023-04-06T00:31:43.434Z,24.90
2023-04-06T00:34:10.745Z,26.10
2023-04-06T00:36:37.772Z,27.07
2023-04-06T00:39:05.019Z,25.43
2023-04-06T00:41:32.130Z,26.40
2023-04-06T00:43:59.048Z,25.13
2023-04-06T00:46:25.914Z,25.93
2023-04-06T00:48:52.811Z,25.33
2023-04-06T00:51:20.002Z,25.07
2023-04-06T00:53:47.254Z,24.43
2023-04-06T00:56:14.088Z,24.00
2023-04-06T00:58:52.778Z,24.80
2023-04-06T01:01:20.114Z,25.13
2023-04-06T01:03:51.112Z,24.80
2023-04-06T01:06:19.615Z,22.60
2023-04-06T01:08:55.609Z,24.23
2023-04-06T01:11:25.290Z,24.53
2023-04-06T01:13:53.487Z,24.10
2023-04-06T01:16:28.237Z,23.13
2023-04-06T01:19:11.255Z,22.77
2023-04-06T01:21:41.099Z,24.57
2023-04-06T01:24:11.295Z,22.70
2023-04-06T01:26:53.225Z,22.30
2023-04-06T01:29:20.664Z,22.30
2023-04-06T01:31:47.844Z,23.17
2023-04-06T01:34:16.029Z,22.03
2023-04-06T01:36:43.068Z,22.83
2023-04-06T01:39:23.893Z,24.23
2023-04-06T01:41:51.332Z,22.13
2023-04-06T01:44:20.767Z,23.43
2023-04-06T01:46:54.154Z,24.63
2023-04-06T01:49:21.033Z,24.63
2023-04-06T01:51:53.822Z,25.63
2023-04-06T01:54:20.822Z,27.33
2023-04-06T01:57:06.713Z,25.30
2023-04-06T01:59:47.432Z,25.93
2023-04-06T02:02:26.775Z,25.57
2023-04-06T02:05:01.513Z,23.90
2023-04-06T02:07:29.093Z,26.20
2023-04-06T02:09:57.259Z,26.03
2023-04-06T02:12:35.435Z,25.33
2023-04-06T02:15:03.103Z,24.87
2023-04-06T02:17:30.103Z,24.97
2023-04-06T02:19:56.969Z,25.80
2023-04-06T02:22:23.922Z,24.67
2023-04-06T02:24:51.549Z,24.87
2023-04-06T02:27:18.357Z,24.97
2023-04-06T02:29:47.895Z,25.00
2023-04-06T02:32:19.240Z,24.27
2023-04-06T02:34:47.124Z,24.83
2023-04-06T02:37:16.121Z,24.13
2023-04-06T02:39:43.003Z,23.80
2023-04-06T02:42:10.055Z,24.23
2023-04-06T02:44:37.050Z,22.90
2023-04-06T02:47:04.037Z,23.70
2023-04-06T02:49:31.498Z,22.70
2023-04-06T02:51:59.736Z,22.63
2023-04-06T02:54:33.427Z,25.93
2023-04-06T02:57:02.061Z,23.67
2023-04-06T02:59:42.104Z,25.37
2023-04-06T03:02:20.484Z,25.60
2023-04-06T03:04:48.419Z,24.20
2023-04-06T03:07:24.239Z,23.93
2023-04-06T03:09:51.160Z,23.30
2023-04-06T03:12:18.815Z,23.73
2023-04-06T03:15:14.103Z,24.67
2023-04-06T03:17:45.599Z,22.67
2023-04-06T03:20:25.494Z,23.97
2023-04-06T03:22:52.411Z,24.10
2023-04-06T03:25:23.941Z,22.23
2023-04-06T03:27:51.034Z,22.53
2023-04-06T03:30:19.959Z,21.50
2023-04-06T03:32:46.930Z,22.13
2023-04-06T03:35:13.742Z,21.47
2023-04-06T03:37:40.645Z,21.30
2023-04-06T03:40:07.700Z,21.93
2023-04-06T03:42:34.624Z,21.73
2023-04-06T03:45:07.268Z,20.47
2023-04-06T03:47:35.248Z,22.37
2023-04-06T03:50:05.985Z,20.67
2023-04-06T03:52:36.121Z,21.13
2023-04-06T03:55:03.069Z,19.77
2023-04-06T03:57:29.881Z,21.60
2023-04-06T03:59:58.212Z,21.30
2023-04-06T04:02:26.824Z,22.90
2023-04-06T04:04:53.995Z,22.83
2023-04-06T04:07:20.977Z,23.23
2023-04-06T04:09:48.122Z,23.13
2023-04-06T04:12:16.563Z,23.23
2023-04-06T04:14:43.988Z,28.97
2023-04-06T04:17:11.242Z,31.60
2023-04-06T04:19:38.059Z,26.43
2023-04-06T04:22:06.135Z,25.43
2023-04-06T04:24:36.125Z,25.07
2023-04-06T04:27:03.109Z,24.53
2023-04-06T04:29:32.200Z,23.97
2023-04-06T04:32:04.241Z,25.67
2023-04-06T04:34:32.292Z,24.43
2023-04-06T04:36:59.267Z,26.13
2023-04-06T04:39:38.364Z,24.70
2023-04-06T04:42:07.301Z,24.13
2023-04-06T04:44:36.170Z,23.77
2023-04-06T04:47:04.100Z,25.33
2023-04-06T04:49:40.743Z,25.13
2023-04-06T04:52:08.655Z,23.77
2023-04-06T04:54:49.041Z,24.10
2023-04-06T04:57:23.532Z,25.23
2023-04-06T04:59:52.013Z,25.73
2023-04-06T05:02:19.792Z,24.43
2023-04-06T05:05:06.887Z,24.53
2023-04-06T05:07:35.040Z,23.87
2023-04-06T05:10:02.536Z,25.40
2023-04-06T05:12:35.108Z,24.67
2023-04-06T05:15:10.827Z,26.33
2023-04-06T05:17:38.384Z,24.50
2023-04-06T05:20:07.303Z,24.23
2023-04-06T05:22:41.450Z,26.67
2023-04-06T05:25:10.924Z,27.47
2023-04-06T05:27:39.297Z,30.13
2023-04-06T05:30:13.415Z,31.47
2023-04-06T05:32:45.679Z,32.80
2023-04-06T05:35:13.632Z,32.00
2023-04-06T05:37:44.087Z,32.37
2023-04-06T05:40:11.407Z,31.27
2023-04-06T05:42:39.469Z,31.03
2023-04-06T05:45:07.714Z,30.87
2023-04-06T05:47:35.254Z,29.63
2023-04-06T05:50:12.576Z,30.57
2023-04-06T05:52:44.085Z,30.83
2023-04-06T05:55:12.999Z,26.93
2023-04-06T05:57:42.697Z,28.33
2023-04-06T06:00:11.229Z,29.37
2023-04-06T06:02:48.624Z,28.90
2023-04-06T06:05:19.954Z,28.13
2023-04-06T06:07:48.381Z,29.80
2023-04-06T06:10:15.261Z,27.70
2023-04-06T06:12:42.445Z,28.93
2023-04-06T06:15:09.570Z,28.33
2023-04-06T06:17:40.780Z,28.97
2023-04-06T06:20:08.414Z,29.20
2023-04-06T06:22:35.770Z,50.67
2023-04-06T06:25:03.767Z,29.83
2023-04-06T06:27:30.825Z,31.80
2023-04-06T06:29:57.705Z,28.13
2023-04-06T06:32:26.028Z,28.27
2023-04-06T06:34:54.398Z,36.27
2023-04-06T06:37:21.262Z,28.20
2023-04-06T06:39:49.324Z,25.07
2023-04-06T06:42:16.744Z,26.50
2023-04-06T06:44:53.953Z,25.97
2023-04-06T06:47:20.978Z,25.23
2023-04-06T06:49:47.873Z,26.17
2023-04-06T06:52:15.511Z,25.30
2023-04-06T06:54:42.324Z,25.37
2023-04-06T06:57:09.261Z,25.43
2023-04-06T06:59:36.698Z,24.90
2023-04-06T07:02:03.945Z,15.87
2023-04-06T07:04:31.620Z,13.37
2023-04-06T07:06:58.579Z,13.40
2023-04-06T07:09:25.898Z,11.17
2023-04-06T07:11:52.745Z,13.43
2023-04-06T07:14:19.642Z,12.37
2023-04-06T07:16:48.099Z,11.90
2023-04-06T07:19:15.916Z,11.60
2023-04-06T07:21:43.257Z,11.17
2023-04-06T07:24:11.060Z,11.77
2023-04-06T07:26:38.257Z,11.60
2023-04-06T07:29:05.211Z,11.90
2023-04-06T07:31:32.831Z,10.63
2023-04-06T07:34:00.019Z,10.87
2023-04-06T07:36:27.033Z,8.83
2023-04-06T07:38:53.942Z,9.53
2023-04-06T07:41:21.443Z,10.93
2023-04-06T07:43:48.661Z,12.40
2023-04-06T07:46:15.799Z,14.60
2023-04-06T07:48:42.634Z,13.27
2023-04-06T07:51:11.799Z,12.93
2023-04-06T07:53:40.518Z,13.27
2023-04-06T07:56:07.721Z,12.87
2023-04-06T07:58:34.669Z,13.27
2023-04-06T08:01:02.192Z,11.23
2023-04-06T08:03:29.353Z,10.57
2023-04-06T08:05:56.529Z,11.63
2023-04-06T08:08:23.766Z,11.03
2023-04-06T08:10:50.600Z,11.33
2023-04-06T08:13:17.596Z,11.20
2023-04-06T08:15:44.785Z,10.53
2023-04-06T08:18:12.197Z,13.40
2023-04-06T08:20:39.048Z,11.83
2023-04-06T08:23:06.169Z,12.03
2023-04-06T08:25:32.986Z,13.03
2023-04-06T08:27:59.854Z,13.33
2023-04-06T08:30:26.799Z,13.60
2023-04-06T08:32:53.626Z,13.23
2023-04-06T08:35:20.892Z,13.30
2023-04-06T08:37:47.664Z,13.93
2023-04-06T08:40:14.499Z,13.07
2023-04-06T08:42:44.976Z,12.50
2023-04-06T08:45:12.030Z,12.17
2023-04-06T08:47:38.987Z,12.40
2023-04-06T08:50:06.149Z,11.67
2023-04-06T08:52:33.291Z,9.20
2023-04-06T08:55:00.126Z,9.53
2023-04-06T08:57:27.629Z,10.07
2023-04-06T08:59:55.331Z,10.03
2023-04-06T09:02:22.932Z,11.13
2023-04-06T09:04:50.675Z,10.83
2023-04-06T09:07:17.788Z,12.23
2023-04-06T09:09:48.967Z,8.13
2023-04-06T09:12:25.704Z,9.50
2023-04-06T09:14:52.651Z,10.37
2023-04-06T09:17:27.311Z,9.17
2023-04-06T09:19:55.196Z,9.90
2023-04-06T09:22:22.144Z,9.43
2023-04-06T09:24:53.093Z,9.13
2023-04-06T09:27:31.535Z,9.17
2023-04-06T09:30:15.238Z,9.40
2023-04-06T09:32:53.102Z,8.80
2023-04-06T09:35:21.615Z,9.70
2023-04-06T09:37:49.028Z,9.93
2023-04-06T09:40:16.606Z,9.73
2023-04-06T09:42:43.683Z,10.63
2023-04-06T09:45:10.965Z,10.77
2023-04-06T09:47:38.546Z,10.23
2023-04-06T09:50:05.955Z,8.73
2023-04-06T09:52:34.164Z,8.80
2023-04-06T09:55:04.028Z,9.50
2023-04-06T09:57:34.360Z,8.17
2023-04-06T10:00:09.221Z,8.30
2023-04-06T10:02:39.377Z,8.30
2023-04-06T10:05:13.048Z,7.60
2023-04-06T10:07:56.805Z,7.70
2023-04-06T10:10:27.307Z,8.53
2023-04-06T10:12:55.001Z,7.50
2023-04-06T10:15:23.048Z,9.20
2023-04-06T10:17:50.195Z,7.57
2023-04-06T10:20:27.496Z,6.73
2023-04-06T10:22:58.191Z,6.43
2023-04-06T10:25:29.415Z,5.90
2023-04-06T10:28:16.458Z,5.83
2023-04-06T10:30:44.235Z,5.33
2023-04-06T10:33:14.815Z,6.70
2023-04-06T10:35:42.127Z,6.63
2023-04-06T10:38:09.053Z,6.27
2023-04-06T10:40:39.695Z,6.60
2023-04-06T10:43:11.097Z,7.80
2023-04-06T10:45:39.099Z,5.83
2023-04-06T10:48:16.561Z,6.60
2023-04-06T10:50:48.084Z,7.50
2023-04-06T10:53:22.130Z,6.63
2023-04-06T10:55:50.684Z,7.67
2023-04-06T10:58:17.488Z,6.87
2023-04-06T11:00:50.847Z,6.90
2023-04-06T11:03:18.686Z,8.70
2023-04-06T11:05:48.128Z,7.63
2023-04-06T11:08:24.265Z,7.73
2023-04-06T11:10:51.156Z,8.20
2023-04-06T11:13:18.465Z,7.93
2023-04-06T11:15:45.467Z,7.93
2023-04-06T11:18:12.612Z,8.70
2023-04-06T11:20:39.625Z,9.30
2023-04-06T11:23:07.335Z,10.37
2023-04-06T11:25:34.195Z,9.67
2023-04-06T11:28:01.095Z,8.23
2023-04-06T11:30:28.045Z,10.43
2023-04-06T11:33:01.858Z,9.43
2023-04-06T11:35:32.103Z,9.13
2023-04-06T11:38:00.442Z,9.30
2023-04-06T11:40:29.111Z,9.40
2023-04-06T11:42:59.116Z,8.53
2023-04-06T11:45:26.543Z,8.23
2023-04-06T11:47:57.419Z,8.73
2023-04-06T11:50:24.402Z,8.23
2023-04-06T11:52:59.295Z,7.63
2023-04-06T11:55:26.154Z,7.13
2023-04-06T11:57:53.106Z,7.20
2023-04-06T12:00:21.344Z,7.40
2023-04-06T12:02:49.202Z,7.20
2023-04-06T12:05:16.231Z,6.73
2023-04-06T12:07:43.763Z,6.93
2023-04-06T12:10:10.884Z,7.20
2023-04-06T12:12:37.895Z,7.30
2023-04-06T12:15:06.222Z,6.63
2023-04-06T12:17:33.165Z,6.47
2023-04-06T12:20:05.347Z,6.80
2023-04-06T12:22:37.459Z,6.87
2023-04-06T12:25:04.506Z,6.30
2023-04-06T12:27:31.415Z,6.93
2023-04-06T12:29:58.265Z,7.37
2023-04-06T12:32:25.320Z,6.83
2023-04-06T12:34:53.585Z,7.37
2023-04-06T12:37:21.570Z,6.37
2023-04-06T12:39:48.562Z,6.63
2023-04-06T12:42:15.908Z,7.20
2023-04-06T12:44:43.975Z,8.60
2023-04-06T12:47:12.338Z,8.00
2023-04-06T12:49:39.343Z,8.13
2023-04-06T12:52:06.205Z,11.13
2023-04-06T12:54:33.160Z,8.30
2023-04-06T12:56:59.948Z,8.70
2023-04-06T12:59:27.436Z,8.57
2023-04-06T13:01:54.382Z,8.23
2023-04-06T13:04:21.233Z,8.00
2023-04-06T13:06:48.055Z,9.93
2023-04-06T13:09:15.078Z,9.13
2023-04-06T13:11:42.594Z,8.77
2023-04-06T13:14:09.580Z,8.73
2023-04-06T13:16:37.953Z,9.40
2023-04-06T13:19:04.959Z,9.23
2023-04-06T13:21:31.721Z,10.33
2023-04-06T13:23:58.622Z,9.30
2023-04-06T13:26:26.432Z,9.03
2023-04-06T13:28:53.341Z,9.10
2023-04-06T13:31:20.693Z,9.53
2023-04-06T13:33:47.640Z,11.67
2023-04-06T13:36:17.397Z,10.30
2023-04-06T13:38:45.229Z,10.87
2023-04-06T13:41:18.801Z,11.53
2023-04-06T13:43:45.728Z,10.43
2023-04-06T13:46:13.012Z,10.00
2023-04-06T13:48:39.945Z,11.37
2023-04-06T13:51:13.183Z,11.40
2023-04-06T13:53:41.608Z,10.50
2023-04-06T13:56:09.382Z,11.40
2023-04-06T13:58:37.528Z,10.93
2023-04-06T14:01:05.444Z,12.13
2023-04-06T14:03:32.693Z,11.30
2023-04-06T14:06:05.191Z,11.67
2023-04-06T14:08:42.747Z,10.93
2023-04-06T14:11:13.365Z,10.53
2023-04-06T14:13:40.484Z,12.20
2023-04-06T14:16:08.383Z,12.13
2023-04-06T14:18:35.607Z,11.63
2023-04-06T14:21:02.544Z,11.43
2023-04-06T14:23:29.876Z,10.83
2023-04-06T14:26:04.689Z,10.83
2023-04-06T14:28:32.448Z,10.37
2023-04-06T14:31:00.154Z,12.43
2023-04-06T14:33:27.857Z,11.80
2023-04-06T14:35:54.821Z,13.03
2023-04-06T14:38:21.864Z,10.73
2023-04-06T14:40:48.933Z,12.33
2023-04-06T14:43:16.313Z,12.10
2023-04-06T14:45:43.124Z,10.47
2023-04-06T14:48:13.253Z,14.30
2023-04-06T14:50:40.797Z,12.60
2023-04-06T14:53:07.903Z,18.03
2023-04-06T14:55:39.846Z,31.73
2023-04-06T14:58:06.683Z,14.13
2023-04-06T15:00:33.604Z,12.20
2023-04-06T15:03:00.664Z,13.77
2023-04-06T15:05:27.839Z,13.33
2023-04-06T15:07:54.990Z,13.37
2023-04-06T15:10:22.344Z,13.00
2023-04-06T15:12:49.272Z,12.57
2023-04-06T15:15:16.374Z,11.20
2023-04-06T15:17:43.294Z,12.03
2023-04-06T15:20:10.477Z,11.33
2023-04-06T15:22:37.439Z,10.60
2023-04-06T15:25:04.448Z,10.13
2023-04-06T15:27:31.435Z,11.60
2023-04-06T15:29:59.822Z,10.70
2023-04-06T15:32:27.299Z,11.10
2023-04-06T15:34:54.570Z,11.40
2023-04-06T15:37:21.441Z,12.20
2023-04-06T15:39:48.351Z,10.33
2023-04-06T15:42:15.212Z,11.77
2023-04-06T15:44:42.496Z,10.83
2023-04-06T15:47:09.343Z,9.57
2023-04-06T15:49:36.398Z,10.10
2023-04-06T15:52:03.498Z,11.57
2023-04-06T15:54:30.501Z,11.03
2023-04-06T15:56:57.433Z,10.63
2023-04-06T15:59:24.399Z,10.70
2023-04-06T16:01:51.267Z,10.47
2023-04-06T16:04:18.344Z,10.27
2023-04-06T16:06:45.221Z,10.10
2023-04-06T16:09:12.119Z,11.00
2023-04-06T16:11:39.068Z,9.93
2023-04-06T16:14:06.157Z,11.40
2023-04-06T16:16:32.998Z,10.83
2023-04-06T16:19:00.472Z,9.87
2023-04-06T16:21:28.143Z,11.23
2023-04-06T16:23:56.109Z,11.43
2023-04-06T16:26:23.919Z,10.57
2023-04-06T16:28:51.567Z,10.63
2023-04-06T16:31:22.676Z,11.17
2023-04-06T16:33:50.135Z,9.80
2023-04-06T16:36:24.399Z,11.10
2023-04-06T16:38:51.590Z,11.83
2023-04-06T16:41:18.357Z,14.03
2023-04-06T16:43:45.422Z,13.37
2023-04-06T16:46:12.530Z,13.03
2023-04-06T16:48:39.827Z,12.57
2023-04-06T16:51:09.693Z,13.43
2023-04-06T16:53:37.488Z,10.33
2023-04-06T16:56:05.805Z,11.80
2023-04-06T16:58:33.667Z,12.30
2023-04-06T17:01:03.490Z,11.40
2023-04-06T17:03:30.998Z,12.23
2023-04-06T17:05:58.174Z,12.47
2023-04-06T17:08:25.076Z,11.53
2023-04-06T17:10:59.573Z,12.53
2023-04-06T17:13:30.980Z,12.10
2023-04-06T17:15:57.845Z,10.33
2023-04-06T17:18:24.902Z,12.50
2023-04-06T17:20:51.688Z,17.67
2023-04-06T17:23:18.636Z,12.50
2023-04-06T17:25:46.068Z,15.33
2023-04-06T17:28:13.373Z,13.60
2023-04-06T17:30:40.512Z,15.07
2023-04-06T17:33:07.613Z,20.90
2023-04-06T17:35:34.570Z,14.80
2023-04-06T17:38:01.872Z,14.67
2023-04-06T17:40:28.863Z,12.30
2023-04-06T17:42:55.761Z,13.73
2023-04-06T17:45:22.561Z,17.37
2023-04-06T17:47:49.556Z,18.27
2023-04-06T17:50:16.431Z,24.37
2023-04-06T17:55:10.164Z,25.93
2023-04-06T17:57:40.015Z,23.00
2023-04-06T18:00:09.886Z,16.63
2023-04-06T18:02:36.816Z,15.63
2023-04-06T18:05:03.985Z,13.23
2023-04-06T18:07:31.089Z,13.33
2023-04-06T18:09:57.908Z,13.77
2023-04-06T18:12:24.820Z,12.67
2023-04-06T18:14:52.280Z,12.60
2023-04-06T18:17:19.206Z,12.93
2023-04-06T18:19:46.904Z,12.40
2023-04-06T18:22:13.898Z,12.33
2023-04-06T18:24:42.763Z,12.07
2023-04-06T18:27:10.723Z,12.90
2023-04-06T18:29:37.525Z,12.93
2023-04-06T18:32:05.798Z,13.67
2023-04-06T18:34:33.171Z,14.53
2023-04-06T18:37:01.769Z,13.97
2023-04-06T18:39:28.901Z,17.67
2023-04-06T18:41:56.219Z,17.70
2023-04-06T18:44:23.058Z,19.77
2023-04-06T18:46:51.039Z,21.00
2023-04-06T18:49:20.407Z,24.60
2023-04-06T18:51:47.280Z,25.77
2023-04-06T18:54:14.205Z,26.10
2023-04-06T18:56:42.241Z,36.50
2023-04-06T18:59:12.196Z,33.40
2023-04-06T19:01:43.906Z,19.47
2023-04-06T19:04:12.305Z,18.00
2023-04-06T19:06:39.489Z,17.13
2023-04-06T19:09:06.408Z,14.67
2023-04-06T19:11:33.863Z,14.43
2023-04-06T19:14:00.715Z,16.80
2023-04-06T19:16:27.756Z,19.30
2023-04-06T19:18:55.122Z,14.60
2023-04-06T19:21:23.408Z,16.33
2023-04-06T19:23:51.358Z,16.50
2023-04-06T19:26:19.263Z,23.30
2023-04-06T19:28:46.893Z,16.30
2023-04-06T19:31:14.847Z,14.00
2023-04-06T19:33:42.303Z,14.57
2023-04-06T19:36:09.623Z,14.90
2023-04-06T19:38:37.174Z,15.73
2023-04-06T19:41:04.379Z,16.43
2023-04-06T19:43:31.343Z,16.97
2023-04-06T19:45:58.284Z,16.80
2023-04-06T19:48:25.206Z,16.87
2023-04-06T19:50:55.465Z,15.93
2023-04-06T19:53:22.724Z,16.60
2023-04-06T19:55:49.675Z,15.53
2023-04-06T19:58:16.797Z,15.73
2023-04-06T20:00:43.676Z,15.60
2023-04-06T20:03:11.261Z,16.83
2023-04-06T20:05:38.239Z,15.40
2023-04-06T20:08:05.210Z,17.43
2023-04-06T20:10:32.343Z,17.60
2023-04-06T20:13:01.425Z,17.03
2023-04-06T20:15:28.591Z,17.23
2023-04-06T20:17:55.671Z,18.13
2023-04-06T20:20:22.632Z,18.77
2023-04-06T20:22:50.420Z,16.70
2023-04-06T20:25:18.259Z,17.07
2023-04-06T20:27:48.084Z,19.67
2023-04-06T20:30:16.243Z,17.07
2023-04-06T20:32:43.482Z,19.43
2023-04-06T20:35:10.705Z,21.07
2023-04-06T20:37:38.066Z,16.73
2023-04-06T20:40:05.844Z,17.07
2023-04-06T20:42:32.709Z,16.60
2023-04-06T20:44:59.669Z,16.50
2023-04-06T20:47:27.483Z,15.57
2023-04-06T20:49:54.701Z,16.53
2023-04-06T20:52:21.819Z,17.67
2023-04-06T20:54:48.983Z,17.40
2023-04-06T20:57:16.027Z,15.70
2023-04-06T20:59:42.867Z,16.30
2023-04-06T21:02:09.909Z,17.07
2023-04-06T21:04:37.430Z,16.17
2023-04-06T21:07:05.721Z,16.53
2023-04-06T21:09:35.402Z,17.27
2023-04-06T21:12:03.164Z,16.97
2023-04-06T21:14:30.091Z,17.73
2023-04-06T21:16:57.071Z,17.60
2023-04-06T21:19:24.393Z,18.55
2023-04-06T21:21:51.455Z,19.07
2023-04-06T21:24:18.712Z,19.57
2023-04-06T21:26:46.291Z,20.40
2023-04-06T21:29:13.421Z,21.93
2023-04-06T21:31:42.079Z,23.00
2023-04-06T21:34:12.640Z,24.27
2023-04-06T21:36:40.326Z,23.53
2023-04-06T21:39:07.381Z,21.50
2023-04-06T21:41:34.669Z,20.77
2023-04-06T21:44:01.536Z,21.60
2023-04-06T21:46:28.578Z,21.63
2023-04-06T21:48:55.412Z,21.13
2023-04-06T21:51:22.887Z,20.23
2023-04-06T21:53:49.994Z,21.40
2023-04-06T21:56:21.573Z,20.87
2023-04-06T21:58:48.628Z,19.20
2023-04-06T22:01:15.575Z,19.07
2023-04-06T22:03:42.890Z,18.60
2023-04-06T22:06:09.871Z,19.20
2023-04-06T22:08:37.058Z,18.37
2023-04-06T22:11:08.872Z,18.83
2023-04-06T22:13:36.369Z,17.80
2023-04-06T22:16:03.587Z,17.40
2023-04-06T22:18:31.387Z,18.57
2023-04-06T22:20:58.513Z,18.20
2023-04-06T22:23:25.750Z,17.93
2023-04-06T22:25:52.933Z,18.63
2023-04-06T22:28:19.823Z,18.53
2023-04-06T22:30:46.740Z,19.63
2023-04-06T22:33:13.687Z,20.07
2023-04-06T22:35:40.782Z,17.53
2023-04-06T22:38:07.790Z,18.67
2023-04-06T22:40:34.719Z,18.83
2023-04-06T22:43:01.654Z,18.87
2023-04-06T22:45:28.665Z,19.27
2023-04-06T22:47:55.544Z,19.73
2023-04-06T22:50:22.740Z,20.20
2023-04-06T22:52:49.647Z,19.10
2023-04-06T22:55:16.539Z,19.00
2023-04-06T22:57:43.358Z,19.23
2023-04-06T23:00:10.536Z,18.73
2023-04-06T23:02:37.759Z,18.73
2023-04-06T23:05:04.945Z,18.63
2023-04-06T23:07:32.975Z,18.63
2023-04-06T23:09:59.780Z,19.80
2023-04-06T23:12:26.929Z,18.10
2023-04-06T23:14:53.775Z,17.07
2023-04-06T23:17:20.799Z,17.03
2023-04-06T23:19:48.347Z,16.37
2023-04-06T23:22:15.269Z,16.70
2023-04-06T23:24:42.070Z,16.93
2023-04-06T23:27:08.975Z,16.80
2023-04-06T23:29:36.077Z,15.80
2023-04-06T23:32:02.930Z,15.83
2023-04-06T23:34:29.933Z,15.63
2023-04-06T23:37:01.281Z,16.60
2023-04-06T23:39:28.413Z,14.10
2023-04-06T23:41:56.367Z,15.90
2023-04-06T23:44:23.474Z,15.90
2023-04-06T23:46:50.454Z,16.17
2023-04-06T23:49:17.609Z,15.87
2023-04-06T23:51:44.374Z,15.97
2023-04-06T23:54:11.187Z,17.13
2023-04-06T23:56:38.184Z,16.43
2023-04-06T23:59:05.005Z,16.27
